This is the latest recevied weather packets stored in our database for station/object WA7SB-7. If no packets are shown the sender has not sent any weather packets the latest 10 day(s).
| Time | Temp. | Humidity | Pressure | Rain* | Wind** | Luminosity | Snow |
|---|---|---|---|---|---|---|---|
| 1777842630 | 18.89° C | 72% | 1011 hPa | 0 mm | - | - | - |
| 1777842572 | 18.89° C | 71% | 1011 hPa | 0 mm | - | - | - |
| 1777842333 | 18.89° C | 71% | 1011 hPa | 0 mm | - | - | - |
| 1777842253 | 18.89° C | 71% | 1011 hPa | 0 mm | - | - | - |
| 1777842019 | 19.44° C | 69% | 1011 hPa | 0 mm | - | - | - |
| 1777841960 | 20° C | 70% | 1011 hPa | 0 mm | - | - | - |
| 1777841717 | 20.56° C | 67% | 1010.9 hPa | 0 mm | - | - | - |
| 1777841658 | 21.11° C | 66% | 1010.9 hPa | 0 mm | - | - | - |
| 1777841418 | 21.67° C | 66% | 1010.9 hPa | 0 mm | - | - | - |
| 1777841359 | 21.67° C | 66% | 1010.9 hPa | 0 mm | - | - | - |
| 1777841116 | 22.22° C | 66% | 1010.9 hPa | 0 mm | - | - | - |
| 1777841058 | 22.22° C | 66% | 1010.9 hPa | 0 mm | - | - | - |
| 1777840817 | 21.67° C | 69% | 1011 hPa | 0 mm | - | - | - |
| 1777840758 | 21.67° C | 68% | 1010.9 hPa | 0 mm | - | - | - |
| 1777840520 | 21.11° C | 70% | 1010.9 hPa | 0 mm | - | - | - |
| 1777840458 | 21.11° C | 70% | 1010.9 hPa | 0 mm | - | - | - |
| 1777840215 | 20.56° C | 72% | 1010.9 hPa | 0 mm | - | - | - |
| 1777840174 | 20.56° C | 70% | 1010.9 hPa | 0 mm | - | - | - |
| 1777839931 | 20.56° C | 70% | 1010.8 hPa | 0 mm | - | - | - |
| 1777839870 | 20.56° C | 69% | 1010.8 hPa | 0 mm | - | - | - |
| 1777839626 | 21.11° C | 71% | 1010.9 hPa | 0 mm | - | - | - |
| 1777839569 | 21.11° C | 70% | 1010.9 hPa | 0 mm | - | - | - |
| 1777839325 | 20.56° C | 72% | 1011.1 hPa | 0 mm | - | - | - |
| 1777839269 | 20.56° C | 72% | 1011 hPa | 0 mm | - | - | - |
| 1777839024 | 19.44° C | 74% | 1011.1 hPa | 0 mm | - | - | - |
* Rain latest hour (hover to see other rain measurements)
** Current wind speed in m/s (hover to see current wind gust speed)